createdAt,value
2022-12-23T00:00:20.376Z,37.72
2022-12-23T00:03:23.821Z,31.95
2022-12-23T00:06:26.740Z,32.40
2022-12-23T00:09:29.943Z,40.92
2022-12-23T00:12:51.113Z,33.30
2022-12-23T00:16:07.316Z,32.08
2022-12-23T00:19:10.780Z,37.85
2022-12-23T00:22:13.832Z,36.70
2022-12-23T00:25:16.823Z,31.73
2022-12-23T00:28:22.671Z,31.77
2022-12-23T00:31:25.872Z,24.40
2022-12-23T00:34:28.966Z,24.27
2022-12-23T00:37:31.470Z,23.97
2022-12-23T00:40:53.748Z,27.65
2022-12-23T00:43:56.451Z,27.98
2022-12-23T00:46:59.534Z,27.77
2022-12-23T00:50:02.169Z,27.00
2022-12-23T00:53:05.957Z,28.73
2022-12-23T00:56:08.577Z,26.62
2022-12-23T00:59:11.613Z,27.17
2022-12-23T01:02:32.577Z,34.33
2022-12-23T01:05:38.888Z,25.50
2022-12-23T01:08:41.626Z,26.50
2022-12-23T01:11:44.508Z,26.98
2022-12-23T01:14:47.151Z,27.67
2022-12-23T01:17:50.009Z,24.08
2022-12-23T01:20:52.608Z,27.77
2022-12-23T01:23:55.545Z,27.23
2022-12-23T01:26:58.449Z,26.55
2022-12-23T01:30:01.324Z,24.58
2022-12-23T01:33:04.015Z,24.52
2022-12-23T01:36:08.454Z,25.77
2022-12-23T01:39:11.076Z,26.53
2022-12-23T01:42:34.531Z,26.35
2022-12-23T01:45:37.502Z,26.75
2022-12-23T01:48:41.991Z,26.00
2022-12-23T01:51:44.649Z,23.25
2022-12-23T01:54:48.045Z,25.77
2022-12-23T01:57:52.300Z,26.15
2022-12-23T02:01:15.947Z,25.70
2022-12-23T02:04:22.120Z,25.60
2022-12-23T02:07:43.256Z,25.92
2022-12-23T02:11:19.933Z,25.27
2022-12-23T02:15:31.163Z,25.35
2022-12-23T02:18:46.289Z,29.37
2022-12-23T02:21:51.875Z,27.52
2022-12-23T02:24:57.631Z,32.33
2022-12-23T02:28:20.408Z,23.80
2022-12-23T02:31:29.920Z,21.45
2022-12-23T02:34:51.816Z,33.58
2022-12-23T02:38:13.895Z,24.00
2022-12-23T02:41:31.615Z,23.12
2022-12-23T02:44:45.134Z,27.13
2022-12-23T02:48:05.531Z,23.23
2022-12-23T02:51:09.224Z,34.17
2022-12-23T02:54:24.141Z,25.37
2022-12-23T02:57:34.945Z,29.60
2022-12-23T03:00:38.778Z,22.03
2022-12-23T03:03:41.827Z,24.83
2022-12-23T03:06:50.050Z,28.60
2022-12-23T03:10:09.114Z,35.08
2022-12-23T03:13:30.505Z,35.92
2022-12-23T03:17:01.219Z,36.73
2022-12-23T03:20:12.787Z,33.67
2022-12-23T03:23:16.770Z,34.55
2022-12-23T03:26:23.274Z,38.58
2022-12-23T03:29:39.166Z,35.58
2022-12-23T03:32:59.736Z,36.33
2022-12-23T03:36:07.666Z,23.52
2022-12-23T03:39:14.620Z,30.70
2022-12-23T03:42:33.913Z,38.08
2022-12-23T03:45:41.724Z,26.58
2022-12-23T03:48:52.563Z,24.77
2022-12-23T03:52:08.090Z,23.73
2022-12-23T03:55:17.378Z,29.37
2022-12-23T03:58:56.556Z,33.20
2022-12-23T04:02:02.649Z,34.60
2022-12-23T04:05:42.830Z,43.10
2022-12-23T04:08:46.559Z,30.30
2022-12-23T04:11:49.796Z,33.17
2022-12-23T04:14:52.352Z,33.17
2022-12-23T04:17:56.841Z,28.00
2022-12-23T04:21:01.066Z,30.30
2022-12-23T04:24:03.940Z,30.12
2022-12-23T04:27:08.023Z,28.52
2022-12-23T04:30:14.025Z,38.70
2022-12-23T04:33:16.873Z,30.75
2022-12-23T04:36:20.080Z,36.37
2022-12-23T04:39:25.759Z,34.20
2022-12-23T04:42:29.457Z,35.75
2022-12-23T04:45:32.706Z,43.92
2022-12-23T04:48:36.260Z,51.20
2022-12-23T04:51:38.745Z,51.87
2022-12-23T04:54:45.913Z,43.42
2022-12-23T04:57:49.244Z,39.75
2022-12-23T05:01:08.378Z,35.75
2022-12-23T05:04:10.987Z,39.60
2022-12-23T05:07:14.101Z,40.20
2022-12-23T05:10:16.884Z,36.85
2022-12-23T05:13:20.237Z,30.30
2022-12-23T05:16:23.152Z,28.38
2022-12-23T05:19:26.680Z,28.35
2022-12-23T05:22:29.337Z,27.93
2022-12-23T05:25:34.058Z,27.92
2022-12-23T05:28:36.666Z,36.45
2022-12-23T05:31:39.553Z,25.02
2022-12-23T05:34:42.163Z,25.15
2022-12-23T05:37:44.990Z,23.17
2022-12-23T05:40:49.928Z,33.83
2022-12-23T05:43:52.856Z,25.37
2022-12-23T05:46:55.488Z,25.50
2022-12-23T05:49:58.316Z,27.42
2022-12-23T05:53:00.945Z,23.50
2022-12-23T05:56:05.940Z,29.25
2022-12-23T05:59:08.457Z,26.70
2022-12-23T06:02:11.540Z,31.60
2022-12-23T06:05:14.759Z,30.98
2022-12-23T06:08:20.546Z,32.33
2022-12-23T06:11:23.409Z,25.40
2022-12-23T06:14:28.986Z,28.33
2022-12-23T06:17:32.978Z,29.90
2022-12-23T06:20:36.485Z,22.65
2022-12-23T06:23:39.672Z,23.00
2022-12-23T06:26:42.345Z,23.83
2022-12-23T06:29:45.630Z,20.70
2022-12-23T06:32:48.234Z,25.10
2022-12-23T06:35:51.161Z,21.45
2022-12-23T06:38:53.888Z,21.37
2022-12-23T06:41:56.946Z,19.55
2022-12-23T06:44:59.524Z,22.35
2022-12-23T06:48:02.888Z,22.98
2022-12-23T06:51:05.905Z,26.85
2022-12-23T06:54:11.597Z,27.03
2022-12-23T06:57:14.297Z,23.55
2022-12-23T07:00:19.035Z,25.20
2022-12-23T07:03:21.784Z,30.95
2022-12-23T07:06:25.051Z,29.20
2022-12-23T07:09:27.869Z,25.87
2022-12-23T07:12:30.947Z,25.90
2022-12-23T07:15:33.578Z,21.10
2022-12-23T07:18:36.900Z,16.17
2022-12-23T07:21:39.474Z,16.20
2022-12-23T07:24:42.397Z,23.10
2022-12-23T07:27:45.044Z,19.80
2022-12-23T07:30:50.490Z,19.50
2022-12-23T07:33:53.201Z,19.58
2022-12-23T07:36:56.202Z,17.10
2022-12-23T07:40:02.148Z,15.70
2022-12-23T07:43:09.468Z,18.65
2022-12-23T07:46:12.090Z,24.25
2022-12-23T07:49:15.099Z,20.02
2022-12-23T07:52:18.188Z,26.27
2022-12-23T07:55:21.244Z,23.90
2022-12-23T07:58:24.237Z,24.60
2022-12-23T08:01:27.179Z,19.70
2022-12-23T08:04:30.395Z,24.42
2022-12-23T08:07:33.016Z,20.67
2022-12-23T08:10:36.149Z,20.80
2022-12-23T08:13:40.306Z,18.42
2022-12-23T08:16:44.335Z,19.30
2022-12-23T08:19:48.331Z,22.58
2022-12-23T08:22:51.122Z,22.05
2022-12-23T08:26:06.315Z,23.87
2022-12-23T08:29:10.875Z,23.52
2022-12-23T08:32:13.350Z,29.42
2022-12-23T08:35:16.159Z,22.23
2022-12-23T08:38:18.809Z,28.17
2022-12-23T08:41:25.769Z,26.90
2022-12-23T08:44:28.783Z,28.20
2022-12-23T08:47:31.789Z,24.40
2022-12-23T08:50:42.661Z,27.05
2022-12-23T08:53:47.204Z,24.17
2022-12-23T08:56:49.754Z,23.10
2022-12-23T08:59:52.545Z,23.70
2022-12-23T09:02:55.188Z,33.38
2022-12-23T09:05:58.165Z,28.48
2022-12-23T09:09:00.685Z,26.90
2022-12-23T09:12:04.522Z,29.17
2022-12-23T09:15:07.658Z,25.62
2022-12-23T09:18:11.483Z,32.05
2022-12-23T09:21:18.588Z,26.37
2022-12-23T09:24:21.433Z,24.90
2022-12-23T09:27:24.046Z,21.60
2022-12-23T09:30:28.116Z,24.50
2022-12-23T09:33:31.434Z,21.12
2022-12-23T09:36:34.466Z,21.75
2022-12-23T09:39:37.038Z,21.35
2022-12-23T09:43:09.123Z,21.23
2022-12-23T09:46:22.089Z,23.77
2022-12-23T09:49:25.107Z,18.70
2022-12-23T09:52:40.780Z,18.73
2022-12-23T09:55:55.525Z,17.73
2022-12-23T09:59:39.641Z,18.10
2022-12-23T10:03:01.511Z,18.42
2022-12-23T10:06:13.385Z,17.02
2022-12-23T10:09:17.524Z,17.75
2022-12-23T10:12:39.385Z,19.17
2022-12-23T10:15:48.509Z,19.40
2022-12-23T10:19:04.766Z,19.98
2022-12-23T10:22:13.224Z,20.12
2022-12-23T10:25:18.451Z,21.90
2022-12-23T10:28:21.481Z,21.90
2022-12-23T10:31:40.786Z,21.90
2022-12-23T10:35:21.750Z,22.60
2022-12-23T10:38:30.321Z,22.20
2022-12-23T10:41:32.777Z,23.27
2022-12-23T10:44:49.642Z,22.80
2022-12-23T10:48:07.416Z,20.90
2022-12-23T10:51:19.327Z,18.05
2022-12-23T10:54:33.984Z,18.55
2022-12-23T10:57:36.935Z,16.90
2022-12-23T11:00:45.706Z,20.83
2022-12-23T11:03:58.184Z,22.43
2022-12-23T11:07:34.247Z,21.35
2022-12-23T11:10:32.982Z,20.65
2022-12-23T11:13:39.109Z,20.52
2022-12-23T11:16:45.732Z,20.15
2022-12-23T11:20:09.148Z,20.20
2022-12-23T11:23:36.639Z,19.60
2022-12-23T11:26:39.525Z,21.27
2022-12-23T11:29:49.341Z,19.95
2022-12-23T11:32:52.553Z,20.15
2022-12-23T11:36:04.765Z,20.70
2022-12-23T11:39:10.377Z,20.60
2022-12-23T11:42:18.711Z,20.10
2022-12-23T11:45:23.678Z,19.50
2022-12-23T11:48:28.953Z,25.05
2022-12-23T11:51:31.570Z,23.27
2022-12-23T11:54:34.415Z,23.02
2022-12-23T11:57:43.476Z,21.50
2022-12-23T12:00:56.112Z,23.52
2022-12-23T12:04:04.606Z,23.30
2022-12-23T12:07:07.428Z,23.87
2022-12-23T12:10:19.937Z,29.05
2022-12-23T12:13:40.248Z,22.55
2022-12-23T12:16:56.050Z,20.40
2022-12-23T12:20:18.100Z,23.05
2022-12-23T12:23:27.623Z,21.43
2022-12-23T12:26:32.502Z,23.90
2022-12-23T12:29:47.590Z,22.65
2022-12-23T12:33:05.218Z,21.48
2022-12-23T12:36:28.236Z,19.23
2022-12-23T12:39:46.033Z,20.63
2022-12-23T12:42:59.996Z,32.03
2022-12-23T12:46:21.540Z,30.40
2022-12-23T12:49:43.608Z,25.75
2022-12-23T12:52:46.225Z,22.50
2022-12-23T12:55:55.183Z,22.43
2022-12-23T12:58:58.274Z,18.90
2022-12-23T13:02:23.201Z,19.12
2022-12-23T13:06:01.007Z,16.00
2022-12-23T13:09:16.580Z,17.48
2022-12-23T13:12:53.963Z,15.53
2022-12-23T13:16:21.780Z,19.77
2022-12-23T13:20:12.842Z,18.90
2022-12-23T13:23:43.056Z,18.52
2022-12-23T13:26:59.236Z,22.62
2022-12-23T13:30:17.784Z,21.27
2022-12-23T13:33:29.906Z,21.45
2022-12-23T13:36:51.002Z,17.77
2022-12-23T13:40:19.364Z,16.25
2022-12-23T13:43:23.313Z,21.02
2022-12-23T13:46:25.992Z,19.53
2022-12-23T13:49:44.070Z,22.37
2022-12-23T13:53:17.613Z,23.77
2022-12-23T13:56:29.590Z,24.52
2022-12-23T13:59:44.163Z,20.75
2022-12-23T14:02:50.204Z,17.23
2022-12-23T14:05:53.465Z,17.80
2022-12-23T14:08:56.222Z,17.98
2022-12-23T14:12:10.185Z,20.60
2022-12-23T14:15:22.048Z,25.88
2022-12-23T14:18:44.211Z,24.93
2022-12-23T14:22:05.309Z,26.83
2022-12-23T14:25:20.382Z,28.02
2022-12-23T14:28:39.577Z,30.40
2022-12-23T14:31:44.999Z,27.73
2022-12-23T14:35:16.390Z,17.33
2022-12-23T14:38:27.639Z,17.23
2022-12-23T14:41:38.850Z,28.92
2022-12-23T14:44:45.847Z,33.85
2022-12-23T14:47:48.421Z,30.05
2022-12-23T14:50:59.682Z,37.10
2022-12-23T14:54:02.306Z,29.25
2022-12-23T14:57:08.232Z,22.85
2022-12-23T15:00:10.907Z,27.37
2022-12-23T15:03:13.926Z,26.73
2022-12-23T15:06:29.638Z,32.17
2022-12-23T15:09:36.997Z,29.85
2022-12-23T15:12:43.151Z,21.58
2022-12-23T15:16:00.673Z,21.42
2022-12-23T15:19:23.056Z,21.98
2022-12-23T15:22:32.593Z,24.20
2022-12-23T15:25:39.940Z,24.65
2022-12-23T15:28:42.956Z,25.52
2022-12-23T15:31:48.955Z,23.55
2022-12-23T15:34:52.728Z,23.12
2022-12-23T15:37:56.440Z,19.63
2022-12-23T15:41:05.596Z,17.08
2022-12-23T15:44:12.731Z,22.83
2022-12-23T15:47:24.791Z,21.12
2022-12-23T15:50:29.522Z,23.45
2022-12-23T15:53:35.211Z,26.13
2022-12-23T15:56:39.167Z,23.12
2022-12-23T15:59:41.943Z,23.83
2022-12-23T16:03:03.780Z,24.25
2022-12-23T16:06:16.690Z,28.65
2022-12-23T16:09:19.288Z,28.07
2022-12-23T16:12:24.494Z,27.45
2022-12-23T16:15:29.707Z,23.10
2022-12-23T16:18:47.029Z,21.23
2022-12-23T16:21:50.561Z,19.65
2022-12-23T16:25:12.541Z,20.63
2022-12-23T16:28:21.605Z,21.17
2022-12-23T16:31:24.887Z,18.52
2022-12-23T16:34:30.708Z,20.62
2022-12-23T16:37:33.526Z,20.73
2022-12-23T16:40:36.870Z,22.37
2022-12-23T16:43:40.728Z,24.02
2022-12-23T16:46:48.878Z,21.45
2022-12-23T16:49:51.698Z,21.73
2022-12-23T16:52:54.273Z,26.42
2022-12-23T16:56:00.913Z,23.90
2022-12-23T16:59:04.735Z,26.42
2022-12-23T17:02:18.878Z,24.37
2022-12-23T17:05:22.765Z,19.45
2022-12-23T17:08:25.644Z,18.60
2022-12-23T17:11:41.239Z,23.37
2022-12-23T17:14:44.687Z,18.98
2022-12-23T17:17:48.477Z,20.23
2022-12-23T17:20:51.810Z,20.75
2022-12-23T17:23:56.814Z,19.02
2022-12-23T17:26:59.629Z,23.60
2022-12-23T17:30:02.217Z,19.12
2022-12-23T17:33:05.598Z,17.90
2022-12-23T17:36:09.639Z,18.58
2022-12-23T17:39:12.825Z,24.60
2022-12-23T17:42:25.250Z,27.80
2022-12-23T17:45:30.927Z,24.75
2022-12-23T17:48:33.541Z,22.02
2022-12-23T17:51:36.615Z,21.67
2022-12-23T17:54:39.943Z,19.08
2022-12-23T17:57:42.749Z,15.07
2022-12-23T18:00:47.523Z,15.90
2022-12-23T18:03:51.800Z,15.07
2022-12-23T18:06:54.272Z,16.37
2022-12-23T18:09:57.320Z,18.70
2022-12-23T18:13:06.110Z,13.30
2022-12-23T18:16:11.419Z,16.62
2022-12-23T18:19:19.793Z,16.23
2022-12-23T18:22:24.065Z,17.33
2022-12-23T18:25:27.528Z,16.42
2022-12-23T18:28:30.452Z,15.20
2022-12-23T18:31:33.334Z,17.75
2022-12-23T18:34:36.175Z,16.77
2022-12-23T18:37:38.722Z,17.12
2022-12-23T18:40:42.714Z,16.60
2022-12-23T18:43:46.584Z,21.07
2022-12-23T18:46:50.396Z,24.27
2022-12-23T18:49:53.380Z,21.83
2022-12-23T18:52:58.021Z,20.75
2022-12-23T18:56:01.259Z,20.75
2022-12-23T18:59:04.493Z,17.07
2022-12-23T19:02:10.477Z,15.10
2022-12-23T19:05:36.901Z,12.15
2022-12-23T19:08:40.439Z,9.63
2022-12-23T19:11:43.552Z,15.98
2022-12-23T19:14:46.564Z,12.17
2022-12-23T19:17:50.709Z,13.05
2022-12-23T19:20:56.429Z,12.95
2022-12-23T19:24:00.312Z,11.73
2022-12-23T19:27:03.227Z,13.07
2022-12-23T19:30:13.941Z,13.27
2022-12-23T19:33:19.248Z,12.68
2022-12-23T19:36:23.108Z,14.07
2022-12-23T19:39:31.094Z,15.20
2022-12-23T19:42:34.674Z,12.70
2022-12-23T19:45:37.607Z,13.77
2022-12-23T19:48:40.668Z,16.05
2022-12-23T19:51:43.611Z,12.60
2022-12-23T19:54:47.505Z,12.20
2022-12-23T19:57:50.065Z,13.00
2022-12-23T20:00:53.853Z,18.53
2022-12-23T20:03:57.124Z,16.12
2022-12-23T20:06:59.931Z,18.77
2022-12-23T20:10:05.025Z,19.92
2022-12-23T20:13:09.399Z,17.55
2022-12-23T20:16:16.606Z,23.27
2022-12-23T20:19:19.855Z,16.98
2022-12-23T20:22:24.000Z,15.77
2022-12-23T20:25:27.086Z,17.10
2022-12-23T20:28:32.015Z,15.32
2022-12-23T20:31:37.657Z,16.73
2022-12-23T20:34:41.886Z,17.40
2022-12-23T20:37:46.217Z,15.68
2022-12-23T20:40:55.228Z,12.43
2022-12-23T20:47:21.620Z,14.67
2022-12-23T20:50:25.310Z,12.52
2022-12-23T20:53:30.664Z,14.73
2022-12-23T20:56:36.516Z,13.00
2022-12-23T20:59:40.223Z,14.68
2022-12-23T21:02:43.336Z,14.03
2022-12-23T21:05:46.620Z,14.45
2022-12-23T21:08:52.920Z,14.32
2022-12-23T21:11:56.183Z,12.23
2022-12-23T21:14:59.772Z,12.20
2022-12-23T21:18:03.235Z,11.50
2022-12-23T21:21:06.071Z,11.12
2022-12-23T21:24:09.781Z,11.32
2022-12-23T21:27:12.346Z,11.05
2022-12-23T21:30:15.552Z,10.45
2022-12-23T21:33:18.342Z,11.83
2022-12-23T21:36:23.430Z,10.65
2022-12-23T21:39:26.868Z,10.00
2022-12-23T21:42:29.650Z,10.55
2022-12-23T21:45:32.839Z,9.73
2022-12-23T21:48:36.622Z,10.60
2022-12-23T21:51:41.049Z,11.85
2022-12-23T21:54:44.358Z,11.52
2022-12-23T21:57:47.343Z,10.65
2022-12-23T22:00:50.449Z,10.82
2022-12-23T22:03:54.065Z,10.70
2022-12-23T22:06:56.614Z,11.12
2022-12-23T22:09:59.469Z,10.25
2022-12-23T22:13:02.228Z,11.12
2022-12-23T22:16:09.578Z,10.35
2022-12-23T22:19:13.081Z,11.20
2022-12-23T22:22:16.025Z,11.68
2022-12-23T22:25:18.705Z,12.55
2022-12-23T22:28:22.076Z,12.85
2022-12-23T22:31:31.861Z,13.60
2022-12-23T22:34:34.647Z,13.87
2022-12-23T22:37:37.376Z,13.40
2022-12-23T22:40:40.462Z,14.18
2022-12-23T22:43:42.994Z,12.77
2022-12-23T22:46:45.914Z,11.70
2022-12-23T22:49:48.889Z,11.00
2022-12-23T22:52:51.913Z,11.93
2022-12-23T22:55:59.165Z,11.57
2022-12-23T22:59:02.317Z,18.87
2022-12-23T23:02:05.201Z,22.70
2022-12-23T23:05:12.917Z,23.20
2022-12-23T23:08:15.936Z,21.55
2022-12-23T23:11:19.446Z,18.45
2022-12-23T23:14:22.361Z,14.70
2022-12-23T23:17:27.314Z,12.77
2022-12-23T23:20:30.052Z,13.53
2022-12-23T23:23:33.661Z,13.82
2022-12-23T23:26:36.328Z,13.82
2022-12-23T23:29:39.659Z,14.68
2022-12-23T23:32:42.200Z,14.85
2022-12-23T23:35:45.108Z,17.03
2022-12-23T23:39:32.643Z,13.82
2022-12-23T23:42:35.896Z,13.93
2022-12-23T23:45:39.886Z,13.10
2022-12-23T23:48:42.731Z,14.37
2022-12-23T23:51:45.453Z,14.25
2022-12-23T23:54:48.561Z,15.13
2022-12-23T23:57:51.284Z,15.90
